sensor_id;sensor_type;location;lat;lon;timestamp;P1;durP1;ratioP1;P2;durP2;ratioP2
18612;SDS011;9436;52.152;21.032;2022-08-05T00:01:41;5.90;;;5.37;;
18612;SDS011;9436;52.152;21.032;2022-08-05T00:04:09;6.63;;;5.70;;
18612;SDS011;9436;52.152;21.032;2022-08-05T00:06:36;7.13;;;5.53;;
18612;SDS011;9436;52.152;21.032;2022-08-05T00:09:03;5.50;;;5.00;;
18612;SDS011;9436;52.152;21.032;2022-08-05T00:11:31;6.70;;;5.50;;
18612;SDS011;9436;52.152;21.032;2022-08-05T00:13:58;6.27;;;5.77;;
18612;SDS011;9436;52.152;21.032;2022-08-05T00:16:26;5.53;;;5.13;;
18612;SDS011;9436;52.152;21.032;2022-08-05T00:18:53;5.67;;;5.17;;
18612;SDS011;9436;52.152;21.032;2022-08-05T00:21:20;6.63;;;5.20;;
18612;SDS011;9436;52.152;21.032;2022-08-05T00:23:47;5.20;;;4.80;;
18612;SDS011;9436;52.152;21.032;2022-08-05T00:26:14;5.23;;;4.67;;
18612;SDS011;9436;52.152;21.032;2022-08-05T00:28:42;5.63;;;5.13;;
18612;SDS011;9436;52.152;21.032;2022-08-05T00:31:09;5.50;;;4.80;;
18612;SDS011;9436;52.152;21.032;2022-08-05T00:33:37;5.17;;;4.77;;
18612;SDS011;9436;52.152;21.032;2022-08-05T00:36:04;5.60;;;5.10;;
18612;SDS011;9436;52.152;21.032;2022-08-05T00:38:31;5.20;;;4.70;;
18612;SDS011;9436;52.152;21.032;2022-08-05T00:40:59;5.90;;;4.33;;
18612;SDS011;9436;52.152;21.032;2022-08-05T00:43:26;5.67;;;4.70;;
18612;SDS011;9436;52.152;21.032;2022-08-05T00:45:54;5.50;;;5.00;;
18612;SDS011;9436;52.152;21.032;2022-08-05T00:48:21;5.33;;;4.60;;
18612;SDS011;9436;52.152;21.032;2022-08-05T00:50:50;5.27;;;4.87;;
18612;SDS011;9436;52.152;21.032;2022-08-05T00:53:18;5.33;;;4.83;;
18612;SDS011;9436;52.152;21.032;2022-08-05T00:55:46;4.67;;;4.27;;
18612;SDS011;9436;52.152;21.032;2022-08-05T00:58:14;5.57;;;4.40;;
18612;SDS011;9436;52.152;21.032;2022-08-05T01:00:42;4.50;;;4.10;;
18612;SDS011;9436;52.152;21.032;2022-08-05T01:03:09;4.80;;;4.30;;
18612;SDS011;9436;52.152;21.032;2022-08-05T01:05:36;4.80;;;4.40;;
18612;SDS011;9436;52.152;21.032;2022-08-05T01:08:05;7.30;;;5.00;;
18612;SDS011;9436;52.152;21.032;2022-08-05T01:10:34;4.73;;;4.30;;
18612;SDS011;9436;52.152;21.032;2022-08-05T01:13:07;5.50;;;5.00;;
18612;SDS011;9436;52.152;21.032;2022-08-05T01:15:41;4.80;;;4.40;;
18612;SDS011;9436;52.152;21.032;2022-08-05T01:18:20;4.80;;;4.40;;
18612;SDS011;9436;52.152;21.032;2022-08-05T01:20:51;4.80;;;4.30;;
18612;SDS011;9436;52.152;21.032;2022-08-05T01:23:38;4.37;;;4.07;;
18612;SDS011;9436;52.152;21.032;2022-08-05T01:26:20;4.90;;;4.40;;
18612;SDS011;9436;52.152;21.032;2022-08-05T01:29:04;4.63;;;4.30;;
18612;SDS011;9436;52.152;21.032;2022-08-05T01:31:36;6.77;;;4.77;;
18612;SDS011;9436;52.152;21.032;2022-08-05T01:34:08;5.30;;;4.70;;
18612;SDS011;9436;52.152;21.032;2022-08-05T01:36:38;5.67;;;4.50;;
18612;SDS011;9436;52.152;21.032;2022-08-05T01:39:09;5.33;;;4.80;;
18612;SDS011;9436;52.152;21.032;2022-08-05T01:41:37;5.47;;;5.00;;
18612;SDS011;9436;52.152;21.032;2022-08-05T01:44:07;5.63;;;4.53;;
18612;SDS011;9436;52.152;21.032;2022-08-05T01:46:37;5.23;;;4.77;;
18612;SDS011;9436;52.152;21.032;2022-08-05T01:49:05;5.00;;;4.60;;
18612;SDS011;9436;52.152;21.032;2022-08-05T01:51:35;5.27;;;4.77;;
18612;SDS011;9436;52.152;21.032;2022-08-05T01:54:05;5.70;;;4.67;;
18612;SDS011;9436;52.152;21.032;2022-08-05T01:56:38;5.17;;;4.77;;
18612;SDS011;9436;52.152;21.032;2022-08-05T01:59:11;5.40;;;4.87;;
18612;SDS011;9436;52.152;21.032;2022-08-05T02:01:41;5.93;;;5.33;;
18612;SDS011;9436;52.152;21.032;2022-08-05T02:04:12;4.73;;;4.33;;
18612;SDS011;9436;52.152;21.032;2022-08-05T02:06:41;6.33;;;5.30;;
18612;SDS011;9436;52.152;21.032;2022-08-05T02:09:08;5.93;;;4.50;;
18612;SDS011;9436;52.152;21.032;2022-08-05T02:11:37;5.27;;;4.87;;
18612;SDS011;9436;52.152;21.032;2022-08-05T02:14:10;5.03;;;4.63;;
18612;SDS011;9436;52.152;21.032;2022-08-05T02:16:43;6.47;;;5.03;;
18612;SDS011;9436;52.152;21.032;2022-08-05T02:19:14;5.50;;;5.00;;
18612;SDS011;9436;52.152;21.032;2022-08-05T02:21:47;5.23;;;4.73;;
18612;SDS011;9436;52.152;21.032;2022-08-05T02:24:19;5.90;;;5.30;;
18612;SDS011;9436;52.152;21.032;2022-08-05T02:26:53;7.00;;;4.97;;
18612;SDS011;9436;52.152;21.032;2022-08-05T02:29:25;5.80;;;4.90;;
18612;SDS011;9436;52.152;21.032;2022-08-05T02:31:54;5.60;;;5.10;;
18612;SDS011;9436;52.152;21.032;2022-08-05T02:34:23;6.47;;;5.47;;
18612;SDS011;9436;52.152;21.032;2022-08-05T02:36:56;6.77;;;5.47;;
18612;SDS011;9436;52.152;21.032;2022-08-05T02:39:28;5.70;;;5.20;;
18612;SDS011;9436;52.152;21.032;2022-08-05T02:41:58;5.90;;;5.30;;
18612;SDS011;9436;52.152;21.032;2022-08-05T02:44:28;6.03;;;5.00;;
18612;SDS011;9436;52.152;21.032;2022-08-05T02:46:57;5.17;;;4.67;;
18612;SDS011;9436;52.152;21.032;2022-08-05T02:49:26;5.20;;;4.80;;
18612;SDS011;9436;52.152;21.032;2022-08-05T02:51:56;5.70;;;5.20;;
18612;SDS011;9436;52.152;21.032;2022-08-05T02:54:23;5.47;;;5.07;;
18612;SDS011;9436;52.152;21.032;2022-08-05T02:56:51;5.60;;;5.10;;
18612;SDS011;9436;52.152;21.032;2022-08-05T02:59:19;5.60;;;5.10;;
18612;SDS011;9436;52.152;21.032;2022-08-05T03:01:49;5.80;;;4.90;;
18612;SDS011;9436;52.152;21.032;2022-08-05T03:04:22;7.37;;;5.00;;
18612;SDS011;9436;52.152;21.032;2022-08-05T03:06:49;5.50;;;5.00;;
18612;SDS011;9436;52.152;21.032;2022-08-05T03:09:16;5.70;;;5.30;;
18612;SDS011;9436;52.152;21.032;2022-08-05T03:11:43;5.63;;;5.00;;
18612;SDS011;9436;52.152;21.032;2022-08-05T03:14:10;6.00;;;5.10;;
18612;SDS011;9436;52.152;21.032;2022-08-05T03:16:37;5.40;;;4.90;;
18612;SDS011;9436;52.152;21.032;2022-08-05T03:19:06;6.43;;;5.53;;
18612;SDS011;9436;52.152;21.032;2022-08-05T03:21:33;5.43;;;5.00;;
18612;SDS011;9436;52.152;21.032;2022-08-05T03:24:00;5.30;;;4.80;;
18612;SDS011;9436;52.152;21.032;2022-08-05T03:26:28;5.57;;;5.17;;
18612;SDS011;9436;52.152;21.032;2022-08-05T03:28:55;5.77;;;5.27;;
18612;SDS011;9436;52.152;21.032;2022-08-05T03:31:22;5.80;;;5.33;;
18612;SDS011;9436;52.152;21.032;2022-08-05T03:33:50;5.90;;;5.40;;
18612;SDS011;9436;52.152;21.032;2022-08-05T03:36:19;5.73;;;5.20;;
18612;SDS011;9436;52.152;21.032;2022-08-05T03:38:46;6.47;;;5.47;;
18612;SDS011;9436;52.152;21.032;2022-08-05T03:41:14;5.80;;;5.30;;
18612;SDS011;9436;52.152;21.032;2022-08-05T03:43:41;6.43;;;5.83;;
18612;SDS011;9436;52.152;21.032;2022-08-05T03:46:08;5.97;;;5.37;;
18612;SDS011;9436;52.152;21.032;2022-08-05T03:48:35;6.00;;;5.37;;
18612;SDS011;9436;52.152;21.032;2022-08-05T03:51:05;6.13;;;5.53;;
18612;SDS011;9436;52.152;21.032;2022-08-05T03:53:40;5.97;;;5.47;;
18612;SDS011;9436;52.152;21.032;2022-08-05T03:56:16;5.70;;;5.20;;
18612;SDS011;9436;52.152;21.032;2022-08-05T03:58:50;6.17;;;5.57;;
18612;SDS011;9436;52.152;21.032;2022-08-05T04:01:20;6.13;;;5.63;;
18612;SDS011;9436;52.152;21.032;2022-08-05T04:03:49;5.73;;;5.33;;
18612;SDS011;9436;52.152;21.032;2022-08-05T04:06:17;5.80;;;5.30;;
18612;SDS011;9436;52.152;21.032;2022-08-05T04:08:46;6.10;;;5.13;;
18612;SDS011;9436;52.152;21.032;2022-08-05T04:11:13;5.80;;;5.30;;
18612;SDS011;9436;52.152;21.032;2022-08-05T04:13:41;6.13;;;5.60;;
18612;SDS011;9436;52.152;21.032;2022-08-05T04:16:10;7.20;;;6.43;;
18612;SDS011;9436;52.152;21.032;2022-08-05T04:18:39;6.60;;;6.10;;
18612;SDS011;9436;52.152;21.032;2022-08-05T04:21:06;5.80;;;5.40;;
18612;SDS011;9436;52.152;21.032;2022-08-05T04:23:33;7.53;;;6.83;;
18612;SDS011;9436;52.152;21.032;2022-08-05T04:26:02;7.33;;;6.57;;
18612;SDS011;9436;52.152;21.032;2022-08-05T04:28:29;7.17;;;6.53;;
18612;SDS011;9436;52.152;21.032;2022-08-05T04:30:56;6.80;;;6.30;;
18612;SDS011;9436;52.152;21.032;2022-08-05T04:33:24;7.67;;;7.07;;
18612;SDS011;9436;52.152;21.032;2022-08-05T04:35:51;7.60;;;6.90;;
18612;SDS011;9436;52.152;21.032;2022-08-05T04:38:18;7.73;;;7.13;;
18612;SDS011;9436;52.152;21.032;2022-08-05T04:40:45;8.47;;;7.77;;
18612;SDS011;9436;52.152;21.032;2022-08-05T04:43:13;7.70;;;7.13;;
18612;SDS011;9436;52.152;21.032;2022-08-05T04:45:40;8.63;;;7.87;;
18612;SDS011;9436;52.152;21.032;2022-08-05T04:48:08;9.90;;;8.90;;
18612;SDS011;9436;52.152;21.032;2022-08-05T04:50:37;8.57;;;7.83;;
18612;SDS011;9436;52.152;21.032;2022-08-05T04:53:06;8.10;;;7.40;;
18612;SDS011;9436;52.152;21.032;2022-08-05T04:55:34;7.70;;;7.03;;
18612;SDS011;9436;52.152;21.032;2022-08-05T04:58:02;8.80;;;7.90;;
18612;SDS011;9436;52.152;21.032;2022-08-05T05:00:31;9.47;;;8.57;;
18612;SDS011;9436;52.152;21.032;2022-08-05T05:02:58;8.63;;;7.83;;
18612;SDS011;9436;52.152;21.032;2022-08-05T05:05:25;10.07;;;9.17;;
18612;SDS011;9436;52.152;21.032;2022-08-05T05:07:52;8.63;;;7.93;;
18612;SDS011;9436;52.152;21.032;2022-08-05T05:10:21;8.80;;;7.97;;
18612;SDS011;9436;52.152;21.032;2022-08-05T05:12:48;8.23;;;7.63;;
18612;SDS011;9436;52.152;21.032;2022-08-05T05:15:15;8.60;;;7.90;;
18612;SDS011;9436;52.152;21.032;2022-08-05T05:17:43;9.50;;;8.33;;
18612;SDS011;9436;52.152;21.032;2022-08-05T05:20:11;9.50;;;8.50;;
18612;SDS011;9436;52.152;21.032;2022-08-05T05:22:38;8.97;;;8.27;;
18612;SDS011;9436;52.152;21.032;2022-08-05T05:25:06;8.63;;;7.83;;
18612;SDS011;9436;52.152;21.032;2022-08-05T05:27:36;8.53;;;7.83;;
18612;SDS011;9436;52.152;21.032;2022-08-05T05:30:03;8.97;;;8.20;;
18612;SDS011;9436;52.152;21.032;2022-08-05T05:32:31;8.70;;;7.90;;
18612;SDS011;9436;52.152;21.032;2022-08-05T05:35:00;8.17;;;7.50;;
18612;SDS011;9436;52.152;21.032;2022-08-05T05:37:27;10.13;;;9.13;;
18612;SDS011;9436;52.152;21.032;2022-08-05T05:39:54;9.10;;;8.30;;
18612;SDS011;9436;52.152;21.032;2022-08-05T05:42:21;8.90;;;8.10;;
18612;SDS011;9436;52.152;21.032;2022-08-05T05:44:48;8.33;;;7.60;;
18612;SDS011;9436;52.152;21.032;2022-08-05T05:47:15;9.50;;;8.60;;
18612;SDS011;9436;52.152;21.032;2022-08-05T05:49:42;8.77;;;7.97;;
18612;SDS011;9436;52.152;21.032;2022-08-05T05:52:10;9.77;;;8.87;;
18612;SDS011;9436;52.152;21.032;2022-08-05T05:54:37;8.97;;;8.23;;
18612;SDS011;9436;52.152;21.032;2022-08-05T05:57:04;6.77;;;6.20;;
18612;SDS011;9436;52.152;21.032;2022-08-05T05:59:31;7.70;;;7.10;;
18612;SDS011;9436;52.152;21.032;2022-08-05T06:01:58;8.07;;;7.47;;
18612;SDS011;9436;52.152;21.032;2022-08-05T06:04:25;8.17;;;7.20;;
18612;SDS011;9436;52.152;21.032;2022-08-05T06:06:51;7.20;;;6.70;;
18612;SDS011;9436;52.152;21.032;2022-08-05T06:09:20;7.27;;;6.67;;
18612;SDS011;9436;52.152;21.032;2022-08-05T06:11:47;7.40;;;6.80;;
18612;SDS011;9436;52.152;21.032;2022-08-05T06:14:14;6.93;;;6.33;;
18612;SDS011;9436;52.152;21.032;2022-08-05T06:16:41;7.87;;;7.23;;
18612;SDS011;9436;52.152;21.032;2022-08-05T06:19:08;6.67;;;6.17;;
18612;SDS011;9436;52.152;21.032;2022-08-05T06:21:35;7.60;;;7.00;;
18612;SDS011;9436;52.152;21.032;2022-08-05T06:24:02;6.13;;;5.63;;
18612;SDS011;9436;52.152;21.032;2022-08-05T06:26:32;6.83;;;6.23;;
18612;SDS011;9436;52.152;21.032;2022-08-05T06:28:58;8.63;;;6.63;;
18612;SDS011;9436;52.152;21.032;2022-08-05T06:31:25;7.60;;;6.00;;
18612;SDS011;9436;52.152;21.032;2022-08-05T06:33:52;7.60;;;6.77;;
18612;SDS011;9436;52.152;21.032;2022-08-05T06:36:19;7.37;;;6.67;;
18612;SDS011;9436;52.152;21.032;2022-08-05T06:38:47;6.30;;;5.80;;
18612;SDS011;9436;52.152;21.032;2022-08-05T06:41:17;5.90;;;5.40;;
18612;SDS011;9436;52.152;21.032;2022-08-05T06:43:46;7.57;;;6.13;;
18612;SDS011;9436;52.152;21.032;2022-08-05T06:46:13;6.90;;;6.20;;
18612;SDS011;9436;52.152;21.032;2022-08-05T06:48:41;6.17;;;5.47;;
18612;SDS011;9436;52.152;21.032;2022-08-05T06:51:08;5.93;;;5.43;;
18612;SDS011;9436;52.152;21.032;2022-08-05T06:53:34;6.17;;;5.67;;
18612;SDS011;9436;52.152;21.032;2022-08-05T06:56:02;6.20;;;5.60;;
18612;SDS011;9436;52.152;21.032;2022-08-05T06:58:29;5.87;;;5.37;;
18612;SDS011;9436;52.152;21.032;2022-08-05T07:00:58;6.30;;;5.70;;
18612;SDS011;9436;52.152;21.032;2022-08-05T07:03:26;5.60;;;5.10;;
18612;SDS011;9436;52.152;21.032;2022-08-05T07:05:54;5.93;;;5.43;;
18612;SDS011;9436;52.152;21.032;2022-08-05T07:08:21;6.20;;;5.73;;
18612;SDS011;9436;52.152;21.032;2022-08-05T07:10:50;7.70;;;6.13;;
18612;SDS011;9436;52.152;21.032;2022-08-05T07:13:17;6.73;;;5.80;;
18612;SDS011;9436;52.152;21.032;2022-08-05T07:16:03;6.30;;;5.80;;
18612;SDS011;9436;52.152;21.032;2022-08-05T07:18:47;5.10;;;4.70;;
18612;SDS011;9436;52.152;21.032;2022-08-05T07:21:14;5.33;;;4.83;;
18612;SDS011;9436;52.152;21.032;2022-08-05T07:23:41;5.57;;;5.17;;
18612;SDS011;9436;52.152;21.032;2022-08-05T07:26:08;4.90;;;4.57;;
18612;SDS011;9436;52.152;21.032;2022-08-05T07:28:35;6.10;;;5.27;;
18612;SDS011;9436;52.152;21.032;2022-08-05T07:31:04;8.73;;;5.50;;
18612;SDS011;9436;52.152;21.032;2022-08-05T07:33:32;6.47;;;4.80;;
18612;SDS011;9436;52.152;21.032;2022-08-05T07:35:59;5.93;;;5.27;;
18612;SDS011;9436;52.152;21.032;2022-08-05T07:38:26;4.87;;;4.40;;
18612;SDS011;9436;52.152;21.032;2022-08-05T07:40:53;5.30;;;4.90;;
18612;SDS011;9436;52.152;21.032;2022-08-05T07:43:20;4.77;;;4.30;;
18612;SDS011;9436;52.152;21.032;2022-08-05T07:45:47;5.80;;;5.10;;
18612;SDS011;9436;52.152;21.032;2022-08-05T07:48:15;4.93;;;4.53;;
18612;SDS011;9436;52.152;21.032;2022-08-05T07:50:42;4.80;;;4.40;;
18612;SDS011;9436;52.152;21.032;2022-08-05T07:53:09;5.37;;;4.80;;
18612;SDS011;9436;52.152;21.032;2022-08-05T07:55:36;5.20;;;4.70;;
18612;SDS011;9436;52.152;21.032;2022-08-05T07:58:03;6.20;;;4.27;;
18612;SDS011;9436;52.152;21.032;2022-08-05T08:00:30;4.37;;;4.13;;
18612;SDS011;9436;52.152;21.032;2022-08-05T08:02:57;5.77;;;4.83;;
18612;SDS011;9436;52.152;21.032;2022-08-05T08:05:26;5.30;;;4.57;;
18612;SDS011;9436;52.152;21.032;2022-08-05T08:07:53;4.93;;;4.43;;
18612;SDS011;9436;52.152;21.032;2022-08-05T08:10:20;5.30;;;4.80;;
18612;SDS011;9436;52.152;21.032;2022-08-05T08:12:47;5.17;;;4.70;;
18612;SDS011;9436;52.152;21.032;2022-08-05T08:15:15;4.63;;;4.33;;
18612;SDS011;9436;52.152;21.032;2022-08-05T08:17:43;4.87;;;4.53;;
18612;SDS011;9436;52.152;21.032;2022-08-05T08:20:10;5.10;;;4.60;;
18612;SDS011;9436;52.152;21.032;2022-08-05T08:22:38;5.30;;;4.80;;
18612;SDS011;9436;52.152;21.032;2022-08-05T08:25:06;6.40;;;5.37;;
18612;SDS011;9436;52.152;21.032;2022-08-05T08:27:34;5.27;;;4.87;;
18612;SDS011;9436;52.152;21.032;2022-08-05T08:30:01;5.70;;;5.17;;
18612;SDS011;9436;52.152;21.032;2022-08-05T08:32:28;4.83;;;4.53;;
18612;SDS011;9436;52.152;21.032;2022-08-05T08:34:58;5.00;;;4.43;;
18612;SDS011;9436;52.152;21.032;2022-08-05T08:37:25;5.30;;;4.80;;
18612;SDS011;9436;52.152;21.032;2022-08-05T08:39:53;5.20;;;4.70;;
18612;SDS011;9436;52.152;21.032;2022-08-05T08:42:21;5.17;;;4.70;;
18612;SDS011;9436;52.152;21.032;2022-08-05T08:44:48;4.57;;;4.17;;
18612;SDS011;9436;52.152;21.032;2022-08-05T08:47:17;6.17;;;5.20;;
18612;SDS011;9436;52.152;21.032;2022-08-05T08:49:47;4.73;;;4.20;;
18612;SDS011;9436;52.152;21.032;2022-08-05T08:52:17;5.47;;;4.60;;
18612;SDS011;9436;52.152;21.032;2022-08-05T08:54:48;4.30;;;4.00;;
18612;SDS011;9436;52.152;21.032;2022-08-05T08:57:19;4.60;;;4.20;;
18612;SDS011;9436;52.152;21.032;2022-08-05T08:59:47;6.57;;;4.73;;
18612;SDS011;9436;52.152;21.032;2022-08-05T09:02:15;4.33;;;4.03;;
18612;SDS011;9436;52.152;21.032;2022-08-05T09:04:44;4.70;;;3.90;;
18612;SDS011;9436;52.152;21.032;2022-08-05T09:07:11;4.27;;;3.87;;
18612;SDS011;9436;52.152;21.032;2022-08-05T09:09:39;4.93;;;4.17;;
18612;SDS011;9436;52.152;21.032;2022-08-05T09:12:06;4.20;;;3.80;;
18612;SDS011;9436;52.152;21.032;2022-08-05T09:14:36;4.40;;;3.90;;
18612;SDS011;9436;52.152;21.032;2022-08-05T09:17:04;4.23;;;3.93;;
18612;SDS011;9436;52.152;21.032;2022-08-05T09:19:33;4.10;;;3.80;;
18612;SDS011;9436;52.152;21.032;2022-08-05T09:22:00;6.23;;;4.33;;
18612;SDS011;9436;52.152;21.032;2022-08-05T09:24:27;19.30;;;8.17;;
18612;SDS011;9436;52.152;21.032;2022-08-05T09:26:55;5.23;;;3.97;;
18612;SDS011;9436;52.152;21.032;2022-08-05T09:29:37;6.90;;;4.17;;
18612;SDS011;9436;52.152;21.032;2022-08-05T09:32:07;4.00;;;3.70;;
18612;SDS011;9436;52.152;21.032;2022-08-05T09:34:45;3.90;;;3.63;;
18612;SDS011;9436;52.152;21.032;2022-08-05T09:37:16;4.30;;;4.00;;
18612;SDS011;9436;52.152;21.032;2022-08-05T09:39:44;4.20;;;3.80;;
18612;SDS011;9436;52.152;21.032;2022-08-05T09:42:11;4.57;;;3.50;;
18612;SDS011;9436;52.152;21.032;2022-08-05T09:44:41;3.83;;;3.43;;
18612;SDS011;9436;52.152;21.032;2022-08-05T09:47:11;3.97;;;3.43;;
18612;SDS011;9436;52.152;21.032;2022-08-05T09:49:40;4.37;;;3.77;;
18612;SDS011;9436;52.152;21.032;2022-08-05T09:52:21;3.87;;;3.30;;
18612;SDS011;9436;52.152;21.032;2022-08-05T09:54:51;4.20;;;3.90;;
18612;SDS011;9436;52.152;21.032;2022-08-05T09:57:32;4.20;;;3.80;;
18612;SDS011;9436;52.152;21.032;2022-08-05T10:00:04;3.80;;;3.50;;
18612;SDS011;9436;52.152;21.032;2022-08-05T10:02:34;4.37;;;3.80;;
18612;SDS011;9436;52.152;21.032;2022-08-05T10:05:07;4.07;;;3.67;;
18612;SDS011;9436;52.152;21.032;2022-08-05T10:07:46;3.40;;;3.20;;
18612;SDS011;9436;52.152;21.032;2022-08-05T10:10:15;3.90;;;3.60;;
18612;SDS011;9436;52.152;21.032;2022-08-05T10:12:44;3.57;;;3.27;;
18612;SDS011;9436;52.152;21.032;2022-08-05T10:15:14;4.07;;;3.57;;
18612;SDS011;9436;52.152;21.032;2022-08-05T10:17:43;4.23;;;3.93;;
18612;SDS011;9436;52.152;21.032;2022-08-05T10:20:10;5.37;;;3.43;;
18612;SDS011;9436;52.152;21.032;2022-08-05T10:22:38;4.40;;;3.73;;
18612;SDS011;9436;52.152;21.032;2022-08-05T10:25:05;4.17;;;3.57;;
18612;SDS011;9436;52.152;21.032;2022-08-05T10:27:33;6.77;;;3.67;;
18612;SDS011;9436;52.152;21.032;2022-08-05T10:30:00;3.70;;;3.40;;
18612;SDS011;9436;52.152;21.032;2022-08-05T10:32:30;4.07;;;3.27;;
18612;SDS011;9436;52.152;21.032;2022-08-05T10:34:57;4.20;;;3.67;;
18612;SDS011;9436;52.152;21.032;2022-08-05T10:37:26;3.80;;;3.50;;
18612;SDS011;9436;52.152;21.032;2022-08-05T10:39:55;3.97;;;3.67;;
18612;SDS011;9436;52.152;21.032;2022-08-05T10:42:26;3.97;;;3.57;;
18612;SDS011;9436;52.152;21.032;2022-08-05T10:44:55;3.57;;;3.27;;
18612;SDS011;9436;52.152;21.032;2022-08-05T10:47:29;4.00;;;3.70;;
18612;SDS011;9436;52.152;21.032;2022-08-05T10:50:02;3.47;;;3.27;;
18612;SDS011;9436;52.152;21.032;2022-08-05T10:52:36;3.40;;;3.20;;
18612;SDS011;9436;52.152;21.032;2022-08-05T10:55:05;4.00;;;3.70;;
18612;SDS011;9436;52.152;21.032;2022-08-05T10:57:35;3.75;;;3.45;;
18612;SDS011;9436;52.152;21.032;2022-08-05T11:00:06;3.78;;;3.50;;
18612;SDS011;9436;52.152;21.032;2022-08-05T11:02:36;3.72;;;3.40;;
18612;SDS011;9436;52.152;21.032;2022-08-05T11:05:04;3.90;;;3.60;;
18612;SDS011;9436;52.152;21.032;2022-08-05T11:07:34;4.05;;;3.75;;
18612;SDS011;9436;52.152;21.032;2022-08-05T11:10:21;5.07;;;3.87;;
18612;SDS011;9436;52.152;21.032;2022-08-05T11:12:48;4.40;;;3.53;;
18612;SDS011;9436;52.152;21.032;2022-08-05T11:15:16;3.45;;;3.25;;
18612;SDS011;9436;52.152;21.032;2022-08-05T11:17:46;4.40;;;3.83;;
18612;SDS011;9436;52.152;21.032;2022-08-05T11:20:30;3.80;;;3.50;;
18612;SDS011;9436;52.152;21.032;2022-08-05T11:26:01;3.90;;;3.60;;
18612;SDS011;9436;52.152;21.032;2022-08-05T11:28:37;4.15;;;3.85;;
18612;SDS011;9436;52.152;21.032;2022-08-05T11:31:22;4.82;;;4.00;;
18612;SDS011;9436;52.152;21.032;2022-08-05T11:34:06;3.90;;;3.60;;
18612;SDS011;9436;52.152;21.032;2022-08-05T11:36:47;4.32;;;3.67;;
18612;SDS011;9436;52.152;21.032;2022-08-05T11:39:18;5.07;;;3.70;;
18612;SDS011;9436;52.152;21.032;2022-08-05T11:42:16;3.60;;;3.30;;
18612;SDS011;9436;52.152;21.032;2022-08-05T11:44:49;4.15;;;3.95;;
18612;SDS011;9436;52.152;21.032;2022-08-05T11:47:19;4.30;;;3.80;;
18612;SDS011;9436;52.152;21.032;2022-08-05T11:49:53;4.55;;;3.88;;
18612;SDS011;9436;52.152;21.032;2022-08-05T11:52:22;4.30;;;3.97;;
18612;SDS011;9436;52.152;21.032;2022-08-05T11:54:51;4.13;;;3.83;;
18612;SDS011;9436;52.152;21.032;2022-08-05T11:57:18;4.18;;;3.85;;
18612;SDS011;9436;52.152;21.032;2022-08-05T11:59:45;4.90;;;4.15;;
18612;SDS011;9436;52.152;21.032;2022-08-05T12:02:12;5.13;;;4.57;;
18612;SDS011;9436;52.152;21.032;2022-08-05T12:04:40;4.07;;;3.78;;
18612;SDS011;9436;52.152;21.032;2022-08-05T12:07:08;4.55;;;4.15;;
18612;SDS011;9436;52.152;21.032;2022-08-05T12:09:37;4.72;;;4.28;;
18612;SDS011;9436;52.152;21.032;2022-08-05T12:12:07;4.18;;;3.90;;
18612;SDS011;9436;52.152;21.032;2022-08-05T12:14:35;4.55;;;4.15;;
18612;SDS011;9436;52.152;21.032;2022-08-05T12:17:05;4.90;;;4.45;;
18612;SDS011;9436;52.152;21.032;2022-08-05T12:19:39;4.30;;;4.00;;
18612;SDS011;9436;52.152;21.032;2022-08-05T12:22:07;5.75;;;4.45;;
18612;SDS011;9436;52.152;21.032;2022-08-05T12:24:34;4.72;;;4.32;;
18612;SDS011;9436;52.152;21.032;2022-08-05T12:27:07;5.25;;;4.15;;
18612;SDS011;9436;52.152;21.032;2022-08-05T12:29:34;5.07;;;4.68;;
18612;SDS011;9436;52.152;21.032;2022-08-05T12:32:02;4.93;;;4.30;;
18612;SDS011;9436;52.152;21.032;2022-08-05T12:34:32;4.60;;;4.20;;
18612;SDS011;9436;52.152;21.032;2022-08-05T12:37:01;6.90;;;4.53;;
18612;SDS011;9436;52.152;21.032;2022-08-05T12:39:34;4.55;;;4.15;;
18612;SDS011;9436;52.152;21.032;2022-08-05T12:42:02;5.20;;;4.80;;
18612;SDS011;9436;52.152;21.032;2022-08-05T12:44:34;4.65;;;4.25;;
18612;SDS011;9436;52.152;21.032;2022-08-05T12:47:02;4.95;;;4.55;;
18612;SDS011;9436;52.152;21.032;2022-08-05T12:49:40;4.85;;;4.45;;
18612;SDS011;9436;52.152;21.032;2022-08-05T12:52:12;4.60;;;4.30;;
18612;SDS011;9436;52.152;21.032;2022-08-05T12:54:40;4.60;;;4.20;;
18612;SDS011;9436;52.152;21.032;2022-08-05T12:57:09;4.90;;;4.50;;
18612;SDS011;9436;52.152;21.032;2022-08-05T12:59:44;4.88;;;4.13;;
18612;SDS011;9436;52.152;21.032;2022-08-05T13:02:15;4.38;;;4.05;;
18612;SDS011;9436;52.152;21.032;2022-08-05T13:04:44;5.72;;;4.07;;
18612;SDS011;9436;52.152;21.032;2022-08-05T13:07:12;4.00;;;3.80;;
18612;SDS011;9436;52.152;21.032;2022-08-05T13:09:41;4.80;;;4.05;;
18612;SDS011;9436;52.152;21.032;2022-08-05T13:12:13;4.43;;;4.13;;
18612;SDS011;9436;52.152;21.032;2022-08-05T13:14:41;10.13;;;4.93;;
18612;SDS011;9436;52.152;21.032;2022-08-05T13:17:15;5.07;;;4.28;;
18612;SDS011;9436;52.152;21.032;2022-08-05T13:19:56;4.47;;;4.05;;
18612;SDS011;9436;52.152;21.032;2022-08-05T13:22:24;4.75;;;4.05;;
18612;SDS011;9436;52.152;21.032;2022-08-05T13:24:51;4.22;;;3.83;;
18612;SDS011;9436;52.152;21.032;2022-08-05T13:27:23;4.20;;;3.85;;
18612;SDS011;9436;52.152;21.032;2022-08-05T13:29:52;4.00;;;3.70;;
18612;SDS011;9436;52.152;21.032;2022-08-05T13:32:19;4.00;;;3.70;;
18612;SDS011;9436;52.152;21.032;2022-08-05T13:34:46;4.28;;;3.88;;
18612;SDS011;9436;52.152;21.032;2022-08-05T13:37:15;4.55;;;4.10;;
18612;SDS011;9436;52.152;21.032;2022-08-05T13:39:42;5.13;;;4.28;;
18612;SDS011;9436;52.152;21.032;2022-08-05T13:42:09;7.03;;;3.90;;
18612;SDS011;9436;52.152;21.032;2022-08-05T13:44:36;5.18;;;3.97;;
18612;SDS011;9436;52.152;21.032;2022-08-05T13:47:05;4.32;;;3.92;;
18612;SDS011;9436;52.152;21.032;2022-08-05T13:49:32;5.10;;;4.20;;
18612;SDS011;9436;52.152;21.032;2022-08-05T13:52:08;4.68;;;4.15;;
18612;SDS011;9436;52.152;21.032;2022-08-05T13:54:36;4.32;;;3.90;;
18612;SDS011;9436;52.152;21.032;2022-08-05T13:57:03;4.60;;;4.20;;
18612;SDS011;9436;52.152;21.032;2022-08-05T13:59:31;4.30;;;4.00;;
18612;SDS011;9436;52.152;21.032;2022-08-05T14:01:58;4.72;;;4.20;;
18612;SDS011;9436;52.152;21.032;2022-08-05T14:04:30;5.10;;;4.22;;
18612;SDS011;9436;52.152;21.032;2022-08-05T14:07:15;4.20;;;3.90;;
18612;SDS011;9436;52.152;21.032;2022-08-05T14:09:46;4.60;;;4.20;;
18612;SDS011;9436;52.152;21.032;2022-08-05T14:12:13;4.28;;;3.97;;
18612;SDS011;9436;52.152;21.032;2022-08-05T14:14:40;4.00;;;3.60;;
18612;SDS011;9436;52.152;21.032;2022-08-05T14:17:07;4.78;;;4.30;;
18612;SDS011;9436;52.152;21.032;2022-08-05T14:19:36;4.22;;;3.90;;
18612;SDS011;9436;52.152;21.032;2022-08-05T14:22:03;4.30;;;4.00;;
18612;SDS011;9436;52.152;21.032;2022-08-05T14:24:30;4.28;;;3.88;;
18612;SDS011;9436;52.152;21.032;2022-08-05T14:26:57;4.57;;;4.18;;
18612;SDS011;9436;52.152;21.032;2022-08-05T14:29:24;5.05;;;3.95;;
18612;SDS011;9436;52.152;21.032;2022-08-05T14:31:51;4.90;;;4.38;;
18612;SDS011;9436;52.152;21.032;2022-08-05T14:34:18;4.55;;;4.15;;
18612;SDS011;9436;52.152;21.032;2022-08-05T14:36:46;4.45;;;4.05;;
18612;SDS011;9436;52.152;21.032;2022-08-05T14:39:13;4.80;;;4.30;;
18612;SDS011;9436;52.152;21.032;2022-08-05T14:41:40;4.10;;;3.72;;
18612;SDS011;9436;52.152;21.032;2022-08-05T14:44:07;4.60;;;4.20;;
18612;SDS011;9436;52.152;21.032;2022-08-05T14:46:34;4.72;;;4.20;;
18612;SDS011;9436;52.152;21.032;2022-08-05T14:49:02;4.60;;;4.03;;
18612;SDS011;9436;52.152;21.032;2022-08-05T14:51:30;4.90;;;4.50;;
18612;SDS011;9436;52.152;21.032;2022-08-05T14:53:59;4.47;;;4.07;;
18612;SDS011;9436;52.152;21.032;2022-08-05T14:56:26;5.00;;;4.50;;
18612;SDS011;9436;52.152;21.032;2022-08-05T14:58:53;4.80;;;4.47;;
18612;SDS011;9436;52.152;21.032;2022-08-05T15:01:20;4.97;;;4.57;;
18612;SDS011;9436;52.152;21.032;2022-08-05T15:03:47;5.03;;;4.53;;